sensor_id;sensor_type;location;lat;lon;timestamp;P1;durP1;ratioP1;P2;durP2;ratioP2
17147;SDS011;8689;47.364;8.796;2024-01-25T11:22:02;0.80;;;0.80;;
17147;SDS011;8689;47.364;8.796;2024-01-25T11:24:36;1.13;;;1.03;;
17147;SDS011;8689;47.364;8.796;2024-01-25T11:27:19;1.43;;;1.07;;
17147;SDS011;8689;47.364;8.796;2024-01-25T11:33:29;1.10;;;1.00;;
17147;SDS011;8689;47.364;8.796;2024-01-25T11:35:58;0.80;;;0.80;;
17147;SDS011;8689;47.364;8.796;2024-01-25T11:38:38;1.03;;;0.93;;
17147;SDS011;8689;47.364;8.796;2024-01-25T11:41:05;1.13;;;1.03;;
17147;SDS011;8689;47.364;8.796;2024-01-25T11:43:32;1.30;;;1.10;;
17147;SDS011;8689;47.364;8.796;2024-01-25T11:46:00;1.10;;;0.97;;
17147;SDS011;8689;47.364;8.796;2024-01-25T11:48:28;1.30;;;1.00;;
17147;SDS011;8689;47.364;8.796;2024-01-25T11:50:58;1.10;;;1.00;;
17147;SDS011;8689;47.364;8.796;2024-01-25T11:53:26;1.00;;;0.90;;
17147;SDS011;8689;47.364;8.796;2024-01-25T11:58:42;0.77;;;0.77;;
17147;SDS011;8689;47.364;8.796;2024-01-25T12:04:04;0.90;;;0.80;;
17147;SDS011;8689;47.364;8.796;2024-01-25T12:06:32;0.77;;;0.77;;
17147;SDS011;8689;47.364;8.796;2024-01-25T12:09:07;1.13;;;1.00;;
17147;SDS011;8689;47.364;8.796;2024-01-25T12:22:40;0.70;;;0.60;;
17147;SDS011;8689;47.364;8.796;2024-01-25T12:25:28;0.63;;;0.57;;
17147;SDS011;8689;47.364;8.796;2024-01-25T12:27:59;0.40;;;0.40;;
17147;SDS011;8689;47.364;8.796;2024-01-25T12:30:29;0.43;;;0.43;;
17147;SDS011;8689;47.364;8.796;2024-01-25T12:38:54;1.07;;;0.70;;
17147;SDS011;8689;47.364;8.796;2024-01-25T12:41:21;0.50;;;0.50;;
17147;SDS011;8689;47.364;8.796;2024-01-25T12:43:51;1.07;;;0.70;;
17147;SDS011;8689;47.364;8.796;2024-01-25T12:46:19;1.10;;;0.70;;
17147;SDS011;8689;47.364;8.796;2024-01-25T12:48:46;0.97;;;0.70;;
17147;SDS011;8689;47.364;8.796;2024-01-25T12:51:20;1.53;;;1.10;;
17147;SDS011;8689;47.364;8.796;2024-01-25T12:53:50;0.90;;;0.80;;
17147;SDS011;8689;47.364;8.796;2024-01-25T12:56:35;0.90;;;0.80;;
17147;SDS011;8689;47.364;8.796;2024-01-25T12:59:04;0.93;;;0.80;;
17147;SDS011;8689;47.364;8.796;2024-01-25T13:05:28;1.30;;;0.80;;
17147;SDS011;8689;47.364;8.796;2024-01-25T13:08:43;0.63;;;0.63;;
17147;SDS011;8689;47.364;8.796;2024-01-25T13:18:42;1.73;;;1.10;;
17147;SDS011;8689;47.364;8.796;2024-01-25T13:24:52;2.40;;;1.00;;
17147;SDS011;8689;47.364;8.796;2024-01-25T13:32:27;1.00;;;0.93;;
17147;SDS011;8689;47.364;8.796;2024-01-25T14:14:46;2.47;;;1.10;;
17147;SDS011;8689;47.364;8.796;2024-01-25T14:21:30;1.27;;;1.17;;
17147;SDS011;8689;47.364;8.796;2024-01-25T14:33:54;2.03;;;1.20;;
17147;SDS011;8689;47.364;8.796;2024-01-25T14:36:40;1.17;;;1.07;;
17147;SDS011;8689;47.364;8.796;2024-01-25T14:39:50;1.70;;;1.20;;
17147;SDS011;8689;47.364;8.796;2024-01-25T14:42:38;1.30;;;1.20;;
17147;SDS011;8689;47.364;8.796;2024-01-25T14:45:11;0.80;;;0.77;;
17147;SDS011;8689;47.364;8.796;2024-01-25T14:47:55;0.90;;;0.80;;
17147;SDS011;8689;47.364;8.796;2024-01-25T14:50:28;2.17;;;0.70;;
17147;SDS011;8689;47.364;8.796;2024-01-25T14:53:03;1.40;;;1.00;;
17147;SDS011;8689;47.364;8.796;2024-01-25T14:55:32;0.80;;;0.80;;
17147;SDS011;8689;47.364;8.796;2024-01-25T14:58:00;0.63;;;0.63;;
17147;SDS011;8689;47.364;8.796;2024-01-25T15:00:44;1.10;;;0.80;;
17147;SDS011;8689;47.364;8.796;2024-01-25T15:03:25;0.73;;;0.73;;
17147;SDS011;8689;47.364;8.796;2024-01-25T15:06:07;1.00;;;0.67;;
17147;SDS011;8689;47.364;8.796;2024-01-25T15:08:44;0.60;;;0.60;;
17147;SDS011;8689;47.364;8.796;2024-01-25T15:11:15;1.20;;;0.70;;
17147;SDS011;8689;47.364;8.796;2024-01-25T15:13:43;0.90;;;0.80;;
17147;SDS011;8689;47.364;8.796;2024-01-25T15:16:10;1.37;;;0.80;;
17147;SDS011;8689;47.364;8.796;2024-01-25T15:18:37;1.40;;;0.80;;
17147;SDS011;8689;47.364;8.796;2024-01-25T15:21:06;2.00;;;1.00;;
17147;SDS011;8689;47.364;8.796;2024-01-25T15:23:34;2.67;;;0.90;;
17147;SDS011;8689;47.364;8.796;2024-01-25T15:26:06;0.90;;;0.80;;
17147;SDS011;8689;47.364;8.796;2024-01-25T15:28:42;1.23;;;1.10;;
17147;SDS011;8689;47.364;8.796;2024-01-25T15:31:10;1.77;;;1.27;;
17147;SDS011;8689;47.364;8.796;2024-01-25T15:33:38;0.83;;;0.80;;
17147;SDS011;8689;47.364;8.796;2024-01-25T15:36:22;1.37;;;1.00;;
17147;SDS011;8689;47.364;8.796;2024-01-25T15:38:49;0.73;;;0.73;;
17147;SDS011;8689;47.364;8.796;2024-01-25T15:41:17;0.97;;;0.90;;
17147;SDS011;8689;47.364;8.796;2024-01-25T16:12:28;1.17;;;0.40;;
17147;SDS011;8689;47.364;8.796;2024-01-25T16:14:55;0.40;;;0.30;;
17147;SDS011;8689;47.364;8.796;2024-01-25T16:17:23;0.80;;;0.50;;
17147;SDS011;8689;47.364;8.796;2024-01-25T16:19:50;0.90;;;0.70;;
17147;SDS011;8689;47.364;8.796;2024-01-25T16:22:17;0.80;;;0.60;;
17147;SDS011;8689;47.364;8.796;2024-01-25T16:24:45;0.60;;;0.40;;
17147;SDS011;8689;47.364;8.796;2024-01-25T16:27:28;0.77;;;0.60;;
17147;SDS011;8689;47.364;8.796;2024-01-25T16:30:00;0.50;;;0.40;;
17147;SDS011;8689;47.364;8.796;2024-01-25T16:39:14;1.20;;;0.60;;
17147;SDS011;8689;47.364;8.796;2024-01-25T16:41:42;0.80;;;0.50;;
17147;SDS011;8689;47.364;8.796;2024-01-25T16:44:27;0.50;;;0.50;;
17147;SDS011;8689;47.364;8.796;2024-01-25T16:53:47;0.50;;;0.40;;
17147;SDS011;8689;47.364;8.796;2024-01-25T17:06:29;2.00;;;0.70;;
17147;SDS011;8689;47.364;8.796;2024-01-25T17:08:59;1.50;;;0.67;;
17147;SDS011;8689;47.364;8.796;2024-01-25T17:14:42;1.17;;;0.70;;
